Terminal Aerodrome Forecast
Issued by NWS

Home | Current Version | Previous Version | Text Only | Print | Product List | Glossary On
Versions: 1 2 3 4 5 6 7 8 9 10 11 12 13
000
FTUS45 KABQ 231100
TAFLVS
TAF
KLVS 231128Z 2312/2412 30018G28KT P6SM SCT120
     FM231500 31022G32KT P6SM SCT080 BKN120
     FM231800 32015G25KT P6SM VCSH BKN080
     FM240000 33012KT P6SM SCT100
     FM240800 30007KT P6SM SKC=

USA.gov is the U.S. government's official web portal to all federal, state and local government web resources and services.